createdAt,value
2023-04-02T00:04:04.913Z,949.0600
2023-04-02T00:04:04.913Z,949.0576
2023-04-02T00:04:50.022Z,949.0069
2023-04-02T00:05:52.067Z,949.0511
2023-04-02T00:06:54.563Z,949.0283
2023-04-02T00:07:56.866Z,949.0400
2023-04-02T00:08:58.939Z,949.0311
2023-04-02T00:10:00.993Z,949.0394
2023-04-02T00:13:05.084Z,949.0100
2023-04-02T00:13:05.084Z,949.0400
2023-04-02T00:14:07.380Z,949.0533
2023-04-02T00:18:34.586Z,949.0289
2023-04-02T00:18:34.586Z,949.0300
2023-04-02T00:19:19.637Z,949.0292
2023-04-02T00:20:24.444Z,949.0206
2023-04-02T00:21:23.133Z,949.0065
2023-04-02T00:22:25.510Z,949.0256
2023-04-02T00:23:27.507Z,949.0283
2023-04-02T00:24:29.583Z,949.0784
2023-04-02T00:27:07.914Z,949.0911
2023-04-02T00:27:07.914Z,949.1200
2023-04-02T00:27:53.144Z,949.0416
2023-04-02T00:28:55.135Z,949.0583
2023-04-02T00:29:57.519Z,949.0573
2023-04-02T00:30:59.754Z,949.0322
2023-04-02T00:32:01.830Z,949.0684
2023-04-02T00:33:04.292Z,948.9522
2023-04-02T00:38:46.800Z,949.0145
2023-04-02T00:38:46.800Z,949.0200
2023-04-02T00:39:36.740Z,949.0350
2023-04-02T00:40:39.011Z,949.0194
2023-04-02T00:41:41.067Z,949.0339
2023-04-02T00:42:43.129Z,949.0494
2023-04-02T00:43:45.190Z,949.0172
2023-04-02T00:44:47.245Z,948.9972
2023-04-02T00:45:49.482Z,949.0189
2023-04-02T00:48:25.531Z,949.0178
2023-04-02T00:48:25.531Z,949.0600
2023-04-02T00:49:27.705Z,949.0728
2023-04-02T00:50:30.124Z,949.0789
2023-04-02T00:51:32.148Z,949.0711
2023-04-02T00:52:34.427Z,949.0778
2023-04-02T00:53:36.743Z,949.0695
2023-04-02T00:54:38.914Z,949.0750
2023-04-02T00:55:40.982Z,949.0806
2023-04-02T00:56:43.422Z,949.0772
2023-04-02T00:57:45.429Z,949.0728
2023-04-02T00:58:47.487Z,949.0722
2023-04-02T00:59:49.934Z,949.0828
2023-04-02T01:00:51.964Z,949.0734
2023-04-02T01:01:54.029Z,949.0511
2023-04-02T01:02:56.338Z,949.0550
2023-04-02T01:03:58.468Z,949.0500
2023-04-02T01:05:00.928Z,949.0422
2023-04-02T01:06:03.193Z,949.0361
2023-04-02T01:07:05.244Z,949.0106
2023-04-02T01:08:07.281Z,948.9966
2023-04-02T01:09:09.295Z,948.9850
2023-04-02T01:10:11.324Z,949.0195
2023-04-02T01:11:13.427Z,949.0122
2023-04-02T01:12:15.654Z,949.0178
2023-04-02T01:13:17.696Z,949.0400
2023-04-02T01:14:19.726Z,949.0378
2023-04-02T01:15:21.758Z,949.0522
2023-04-02T01:16:23.872Z,949.0605
2023-04-02T01:17:26.149Z,949.0639
2023-04-02T01:18:28.284Z,949.0789
2023-04-02T01:19:30.254Z,949.0895
2023-04-02T01:20:32.274Z,949.0895
2023-04-02T01:21:34.331Z,949.0917
2023-04-02T01:22:36.681Z,949.1111
2023-04-02T01:23:38.705Z,949.1183
2023-04-02T01:24:40.821Z,949.1172
2023-04-02T01:25:42.838Z,949.1422
2023-04-02T01:26:44.889Z,949.1528
2023-04-02T01:27:46.918Z,949.1550
2023-04-02T01:28:48.936Z,949.1617
2023-04-02T01:29:51.053Z,949.1533
2023-04-02T01:30:53.081Z,949.1367
2023-04-02T01:31:55.221Z,949.1183
2023-04-02T01:32:57.274Z,949.1066
2023-04-02T01:33:59.287Z,949.1094
2023-04-02T01:36:29.799Z,949.1234
2023-04-02T01:36:29.799Z,949.1500
2023-04-02T01:37:32.027Z,949.1517
2023-04-02T01:38:34.100Z,949.1644
2023-04-02T01:39:36.094Z,949.1839
2023-04-02T01:40:38.434Z,949.1895
2023-04-02T01:41:40.482Z,949.1961
2023-04-02T01:42:42.552Z,949.1772
2023-04-02T01:43:44.599Z,949.1728
2023-04-02T01:44:46.684Z,949.1805
2023-04-02T01:45:49.006Z,949.1666
2023-04-02T01:46:51.155Z,949.1766
2023-04-02T01:47:53.372Z,949.1605
2023-04-02T01:48:55.460Z,949.1655
2023-04-02T01:49:57.523Z,949.1572
2023-04-02T01:50:59.738Z,949.1622
2023-04-02T01:52:01.756Z,949.1939
2023-04-02T01:53:04.097Z,949.2039
2023-04-02T01:54:06.155Z,949.1866
2023-04-02T01:55:08.194Z,949.1750
2023-04-02T01:56:10.232Z,949.1644
2023-04-02T01:57:12.500Z,949.1594
2023-04-02T01:58:14.609Z,949.1816
2023-04-02T01:59:16.682Z,949.1733
2023-04-02T02:00:18.926Z,949.2028
2023-04-02T02:01:21.060Z,949.1934
2023-04-02T02:02:23.242Z,949.2006
2023-04-02T02:03:25.320Z,949.2205
2023-04-02T02:04:27.627Z,949.2228
2023-04-02T02:05:29.860Z,949.2256
2023-04-02T02:06:31.911Z,949.2211
2023-04-02T02:07:33.939Z,949.2339
2023-04-02T02:08:36.032Z,949.2394
2023-04-02T02:09:38.071Z,949.2850
2023-04-02T02:10:40.283Z,949.3111
2023-04-02T02:11:42.321Z,949.3161
2023-04-02T02:12:44.348Z,949.3178
2023-04-02T02:13:46.427Z,949.3256
2023-04-02T02:14:48.484Z,949.3317
2023-04-02T02:15:50.537Z,949.3367
2023-04-02T02:16:52.609Z,949.3367
2023-04-02T02:17:54.734Z,949.3178
2023-04-02T02:18:56.798Z,949.3134
2023-04-02T02:19:58.906Z,949.3245
2023-04-02T02:21:00.930Z,949.3311
2023-04-02T02:22:02.986Z,949.3156
2023-04-02T02:23:05.040Z,949.2950
2023-04-02T02:24:07.249Z,949.2978
2023-04-02T02:25:09.300Z,949.3055
2023-04-02T02:26:11.389Z,949.2966
2023-04-02T02:27:13.421Z,949.3150
2023-04-02T02:28:15.493Z,949.3267
2023-04-02T02:29:17.592Z,949.3417
2023-04-02T02:30:19.665Z,949.3517
2023-04-02T02:31:21.718Z,949.3672
2023-04-02T02:32:23.802Z,949.3761
2023-04-02T02:33:25.914Z,949.3950
2023-04-02T02:34:27.993Z,949.4022
2023-04-02T02:35:30.051Z,949.4139
2023-04-02T02:36:32.103Z,949.4411
2023-04-02T02:37:34.170Z,949.4617
2023-04-02T02:38:36.244Z,949.4689
2023-04-02T02:39:38.281Z,949.4816
2023-04-02T02:40:40.339Z,949.5028
2023-04-02T02:41:42.416Z,949.5222
2023-04-02T02:42:44.478Z,949.5433
2023-04-02T02:43:46.522Z,949.5634
2023-04-02T02:44:49.326Z,949.5539
2023-04-02T02:45:51.410Z,949.5950
2023-04-02T02:46:53.465Z,949.6033
2023-04-02T02:47:55.743Z,949.6116
2023-04-02T02:48:57.791Z,949.6284
2023-04-02T02:49:59.843Z,949.6339
2023-04-02T02:51:01.867Z,949.6128
2023-04-02T02:52:03.906Z,949.6306
2023-04-02T02:53:06.160Z,949.6461
2023-04-02T02:54:08.275Z,949.6411
2023-04-02T02:55:10.385Z,949.5917
2023-04-02T02:56:12.400Z,949.6234
2023-04-02T02:57:14.462Z,949.6683
2023-04-02T02:58:16.516Z,949.6705
2023-04-02T02:59:18.581Z,949.6700
2023-04-02T03:00:20.596Z,949.6778
2023-04-02T03:01:22.714Z,949.6783
2023-04-02T03:02:24.880Z,949.7017
2023-04-02T03:03:27.079Z,949.6961
2023-04-02T03:04:29.217Z,949.6939
2023-04-02T03:05:31.327Z,949.7228
2023-04-02T03:06:33.358Z,949.7339
2023-04-02T03:07:35.424Z,949.7261
2023-04-02T03:08:37.451Z,949.7233
2023-04-02T03:09:39.477Z,949.7272
2023-04-02T03:10:41.575Z,949.7534
2023-04-02T03:11:43.576Z,949.7789
2023-04-02T03:12:45.607Z,949.7989
2023-04-02T03:13:47.653Z,949.7917
2023-04-02T03:14:49.679Z,949.8050
2023-04-02T03:15:51.754Z,949.8116
2023-04-02T03:16:53.793Z,949.8322
2023-04-02T03:17:56.117Z,949.8489
2023-04-02T03:18:58.103Z,949.8467
2023-04-02T03:20:00.189Z,949.8589
2023-04-02T03:21:02.254Z,949.8817
2023-04-02T03:22:04.274Z,949.8806
2023-04-02T03:23:06.317Z,949.8811
2023-04-02T03:24:08.366Z,949.8745
2023-04-02T03:25:10.430Z,949.8778
2023-04-02T03:26:12.544Z,949.8878
2023-04-02T03:27:15.289Z,949.8878
2023-04-02T03:28:17.350Z,949.9011
2023-04-02T03:29:19.401Z,949.9022
2023-04-02T03:30:21.673Z,949.8961
2023-04-02T03:31:23.834Z,949.9011
2023-04-02T03:32:25.899Z,949.9017
2023-04-02T03:33:27.937Z,949.9100
2023-04-02T03:34:29.961Z,949.9183
2023-04-02T03:35:32.191Z,949.9278
2023-04-02T03:36:34.269Z,949.9050
2023-04-02T03:37:36.515Z,949.8995
2023-04-02T03:38:38.584Z,949.9228
2023-04-02T03:39:40.633Z,949.9200
2023-04-02T03:40:42.685Z,949.9300
2023-04-02T03:41:44.750Z,949.9472
2023-04-02T03:42:46.799Z,949.9517
2023-04-02T03:43:48.859Z,949.9589
2023-04-02T03:44:51.226Z,949.9705
2023-04-02T03:45:53.288Z,949.9794
2023-04-02T03:46:55.413Z,949.9894
2023-04-02T03:47:57.505Z,950.0178
2023-04-02T03:48:59.535Z,950.0245
2023-04-02T03:50:01.609Z,950.0333
2023-04-02T03:51:03.658Z,950.0439
2023-04-02T03:52:05.723Z,950.0578
2023-04-02T03:53:07.928Z,950.0750
2023-04-02T03:54:09.983Z,950.0772
2023-04-02T03:55:12.021Z,950.0911
2023-04-02T03:56:14.100Z,950.1011
2023-04-02T03:57:16.232Z,950.0917
2023-04-02T03:58:18.335Z,950.0911
2023-04-02T03:59:20.292Z,950.0939
2023-04-02T04:00:22.343Z,950.0745
2023-04-02T04:01:24.349Z,950.0728
2023-04-02T04:02:26.584Z,950.0656
2023-04-02T04:03:28.683Z,950.0695
2023-04-02T04:04:30.786Z,950.0817
2023-04-02T04:05:33.101Z,950.0883
2023-04-02T04:06:35.273Z,950.0917
2023-04-02T04:07:37.496Z,950.0939
2023-04-02T04:08:39.517Z,950.0722
2023-04-02T04:09:41.556Z,950.0689
2023-04-02T04:10:43.637Z,950.0717
2023-04-02T04:11:45.707Z,950.0772
2023-04-02T04:12:47.766Z,950.0878
2023-04-02T04:13:49.799Z,950.0800
2023-04-02T04:14:51.871Z,950.0944
2023-04-02T04:15:53.895Z,950.1044
2023-04-02T04:16:55.979Z,950.1367
2023-04-02T04:17:58.070Z,950.1406
2023-04-02T04:19:00.065Z,950.1672
2023-04-02T04:20:02.135Z,950.1800
2023-04-02T04:21:04.144Z,950.1728
2023-04-02T04:22:06.180Z,950.1950
2023-04-02T04:23:08.269Z,950.2011
2023-04-02T04:24:10.318Z,950.2161
2023-04-02T04:25:12.644Z,950.2050
2023-04-02T04:26:14.687Z,950.2239
2023-04-02T04:27:16.709Z,950.2267
2023-04-02T04:28:18.771Z,950.2378
2023-04-02T04:29:20.819Z,950.2495
2023-04-02T04:30:22.838Z,950.2500
2023-04-02T04:31:25.992Z,950.2444
2023-04-02T04:32:28.183Z,950.2495
2023-04-02T04:33:30.235Z,950.2511
2023-04-02T04:34:32.303Z,950.2572
2023-04-02T04:35:34.616Z,950.2711
2023-04-02T04:36:36.919Z,950.2761
2023-04-02T04:37:39.334Z,950.2745
2023-04-02T04:38:42.164Z,950.2889
2023-04-02T04:39:44.430Z,950.2961
2023-04-02T04:40:46.465Z,950.3122
2023-04-02T04:41:48.486Z,950.3195
2023-04-02T04:42:50.514Z,950.3350
2023-04-02T04:43:52.602Z,950.3289
2023-04-02T04:44:54.846Z,950.3511
2023-04-02T04:45:56.920Z,950.3605
2023-04-02T04:46:58.987Z,950.3672
2023-04-02T04:48:01.080Z,950.3850
2023-04-02T04:49:03.164Z,950.3828
2023-04-02T04:50:05.247Z,950.3884
2023-04-02T04:51:07.309Z,950.3956
2023-04-02T04:52:09.410Z,950.4089
2023-04-02T04:53:11.487Z,950.4328
2023-04-02T04:54:13.578Z,950.4423
2023-04-02T04:55:15.940Z,950.4344
2023-04-02T04:56:19.609Z,950.4661
2023-04-02T04:57:18.654Z,950.4764
2023-04-02T04:58:20.778Z,950.4889
2023-04-02T04:59:23.162Z,950.4911
2023-04-02T05:00:25.183Z,950.4833
2023-04-02T05:01:27.388Z,950.4661
2023-04-02T05:02:29.518Z,950.4628
2023-04-02T05:03:31.547Z,950.4595
2023-04-02T05:04:33.915Z,950.4700
2023-04-02T05:05:36.208Z,950.4550
2023-04-02T05:06:38.485Z,950.4484
2023-04-02T05:07:40.609Z,950.4506
2023-04-02T05:08:42.706Z,950.4495
2023-04-02T05:09:44.826Z,950.4445
2023-04-02T05:10:46.904Z,950.4550
2023-04-02T05:11:49.005Z,950.4633
2023-04-02T05:12:51.311Z,950.4617
2023-04-02T05:13:53.405Z,950.4655
2023-04-02T05:14:55.755Z,950.4922
2023-04-02T05:15:59.444Z,950.4944
2023-04-02T05:16:59.579Z,950.5065
2023-04-02T05:18:01.691Z,950.5189
2023-04-02T05:19:03.817Z,950.5478
2023-04-02T05:20:05.936Z,950.5439
2023-04-02T05:21:07.979Z,950.5611
2023-04-02T05:22:10.081Z,950.5756
2023-04-02T05:23:12.214Z,950.5561
2023-04-02T05:24:14.293Z,950.5161
2023-04-02T05:25:16.420Z,950.5594
2023-04-02T05:26:18.520Z,950.5994
2023-04-02T05:27:20.615Z,950.5939
2023-04-02T05:28:22.725Z,950.5889
2023-04-02T05:29:24.834Z,950.6000
2023-04-02T05:30:26.994Z,950.6155
2023-04-02T05:31:29.142Z,950.6239
2023-04-02T05:32:31.258Z,950.6322
2023-04-02T05:33:33.348Z,950.6500
2023-04-02T05:34:35.462Z,950.6439
2023-04-02T05:35:37.961Z,950.6644
2023-04-02T05:36:40.235Z,950.6650
2023-04-02T05:37:42.345Z,950.6672
2023-04-02T05:38:44.452Z,950.6567
2023-04-02T05:39:46.612Z,950.6572
2023-04-02T05:40:48.663Z,950.6428
2023-04-02T05:41:50.735Z,950.6378
2023-04-02T05:42:52.865Z,950.6550
2023-04-02T05:43:54.914Z,950.6506
2023-04-02T05:44:57.004Z,950.6500
2023-04-02T05:45:59.081Z,950.6716
2023-04-02T05:47:01.255Z,950.6939
2023-04-02T05:48:03.366Z,950.7139
2023-04-02T05:49:05.393Z,950.7278
2023-04-02T05:50:07.493Z,950.7305
2023-04-02T05:51:09.650Z,950.7595
2023-04-02T05:52:11.763Z,950.7584
2023-04-02T05:53:13.836Z,950.7689
2023-04-02T05:54:15.893Z,950.7950
2023-04-02T05:55:17.963Z,950.8116
2023-04-02T05:56:20.093Z,950.8156
2023-04-02T05:57:29.579Z,950.8400
2023-04-02T05:58:35.450Z,950.8500
2023-04-02T05:59:24.443Z,950.8569
2023-04-02T06:00:26.511Z,950.8661
2023-04-02T06:01:28.620Z,950.8878
2023-04-02T06:02:31.283Z,950.8900
2023-04-02T06:03:33.501Z,950.8895
2023-04-02T06:04:35.616Z,950.8917
2023-04-02T06:05:37.835Z,950.9050
2023-04-02T06:06:39.986Z,950.9228
2023-04-02T06:07:42.082Z,950.9372
2023-04-02T06:08:44.179Z,950.9511
2023-04-02T06:09:46.249Z,950.9534
2023-04-02T06:10:48.358Z,950.9561
2023-04-02T06:11:50.533Z,950.9739
2023-04-02T06:12:52.574Z,950.9822
2023-04-02T06:13:54.658Z,950.9989
2023-04-02T06:14:56.995Z,951.0084
2023-04-02T06:15:59.090Z,951.0122
2023-04-02T06:17:01.309Z,951.0011
2023-04-02T06:18:03.485Z,951.0250
2023-04-02T06:19:05.618Z,951.0494
2023-04-02T06:20:07.722Z,951.0516
2023-04-02T06:21:09.814Z,951.0656
2023-04-02T06:22:11.987Z,951.0850
2023-04-02T06:23:14.140Z,951.1000
2023-04-02T06:24:16.241Z,951.0972
2023-04-02T06:25:18.352Z,951.0950
2023-04-02T06:26:20.445Z,951.1044
2023-04-02T06:27:22.573Z,951.1216
2023-04-02T06:28:24.660Z,951.1011
2023-04-02T06:29:26.770Z,951.0944
2023-04-02T06:30:28.900Z,951.1022
2023-04-02T06:31:30.942Z,951.1111
2023-04-02T06:32:33.227Z,951.1211
2023-04-02T06:33:35.357Z,951.1406
2023-04-02T06:34:37.461Z,951.1461
2023-04-02T06:35:39.582Z,951.1594
2023-04-02T06:36:41.672Z,951.1589
2023-04-02T06:37:43.824Z,951.1372
2023-04-02T06:38:45.933Z,951.1594
2023-04-02T06:39:48.040Z,951.1778
2023-04-02T06:40:50.150Z,951.1733
2023-04-02T06:41:52.253Z,951.1755
2023-04-02T06:42:54.363Z,951.1833
2023-04-02T06:43:56.484Z,951.1967
2023-04-02T06:44:58.569Z,951.1961
2023-04-02T06:46:00.693Z,951.2194
2023-04-02T06:47:03.237Z,951.2233
2023-04-02T06:48:05.396Z,951.2095
2023-04-02T06:49:07.502Z,951.2078
2023-04-02T06:50:09.601Z,951.2528
2023-04-02T06:51:11.692Z,951.2606
2023-04-02T06:52:13.778Z,951.2783
2023-04-02T06:53:15.937Z,951.2794
2023-04-02T06:54:18.032Z,951.2933
2023-04-02T06:55:20.163Z,951.3122
2023-04-02T06:56:22.253Z,951.3300
2023-04-02T06:57:24.417Z,951.3156
2023-04-02T06:58:26.530Z,951.3066
2023-04-02T06:59:28.657Z,951.3250
2023-04-02T07:00:30.747Z,951.3644
2023-04-02T07:01:32.871Z,951.3561
2023-04-02T07:02:35.044Z,951.3722
2023-04-02T07:03:37.203Z,951.3989
2023-04-02T07:04:39.351Z,951.3978
2023-04-02T07:05:42.964Z,951.3734
2023-04-02T07:06:41.726Z,951.4318
2023-04-02T07:07:43.806Z,951.4611
2023-04-02T07:08:45.942Z,951.4572
2023-04-02T07:09:48.049Z,951.4150
2023-04-02T07:10:50.108Z,951.4578
2023-04-02T07:11:52.200Z,951.4567
2023-04-02T07:12:54.287Z,951.4789
2023-04-02T07:13:56.368Z,951.4794
2023-04-02T07:14:58.450Z,951.4739
2023-04-02T07:16:00.598Z,951.4450
2023-04-02T07:17:02.929Z,951.4761
2023-04-02T07:18:05.018Z,951.4622
2023-04-02T07:19:07.265Z,951.5122
2023-04-02T07:20:09.342Z,951.5128
2023-04-02T07:21:11.397Z,951.5206
2023-04-02T07:22:13.493Z,951.5350
2023-04-02T07:23:17.037Z,951.5761
2023-04-02T07:24:15.790Z,951.5800
2023-04-02T07:25:17.908Z,951.5795
2023-04-02T07:26:20.265Z,951.5539
2023-04-02T07:27:22.357Z,951.6100
2023-04-02T07:28:24.506Z,951.6478
2023-04-02T07:29:26.643Z,951.6655
2023-04-02T07:30:28.763Z,951.6655
2023-04-02T07:31:30.941Z,951.6561
2023-04-02T07:32:33.071Z,951.6678
2023-04-02T07:33:35.142Z,951.6844
2023-04-02T07:34:35.379Z,951.6312
2023-04-02T07:35:37.797Z,951.6317
2023-04-02T07:36:40.050Z,951.6789
2023-04-02T07:37:42.156Z,951.6250
2023-04-02T07:38:44.235Z,951.6617
2023-04-02T07:39:46.389Z,951.6700
2023-04-02T07:40:48.490Z,951.6766
2023-04-02T07:41:50.613Z,951.6583
2023-04-02T07:42:52.748Z,951.7117
2023-04-02T07:43:54.825Z,951.7672
2023-04-02T07:44:56.979Z,951.7495
2023-04-02T07:45:59.086Z,951.7789
2023-04-02T07:47:01.373Z,951.7844
2023-04-02T07:48:03.681Z,951.7767
2023-04-02T07:49:05.844Z,951.7828
2023-04-02T07:50:07.962Z,951.8178
2023-04-02T07:51:10.106Z,951.7683
2023-04-02T07:52:12.230Z,951.7428
2023-04-02T07:53:14.294Z,951.6833
2023-04-02T07:54:16.397Z,951.7317
2023-04-02T07:55:18.502Z,951.8222
2023-04-02T07:56:20.625Z,951.8005
2023-04-02T07:57:22.735Z,951.7700
2023-04-02T07:58:24.812Z,951.7572
2023-04-02T07:59:26.885Z,951.7516
2023-04-02T08:00:30.514Z,951.6995
2023-04-02T08:01:29.355Z,951.7459
2023-04-02T08:02:31.528Z,951.6978
2023-04-02T08:03:33.754Z,951.6961
2023-04-02T08:04:35.874Z,951.7972
2023-04-02T08:05:38.283Z,951.7944
2023-04-02T08:06:40.348Z,951.8705
2023-04-02T08:07:42.434Z,951.8661
2023-04-02T08:08:44.545Z,951.7522
2023-04-02T08:09:46.721Z,951.7717
2023-04-02T08:10:48.871Z,951.8378
2023-04-02T08:11:51.184Z,951.7706
2023-04-02T08:12:53.264Z,951.7922
2023-04-02T08:13:55.364Z,951.8739
2023-04-02T08:14:57.443Z,951.7622
2023-04-02T08:15:59.576Z,951.8417
2023-04-02T08:17:01.700Z,951.8772
2023-04-02T08:18:03.820Z,951.9233
2023-04-02T08:19:05.865Z,951.9000
2023-04-02T08:20:07.978Z,951.8867
2023-04-02T08:21:10.157Z,951.9028
2023-04-02T08:22:12.161Z,951.9583
2023-04-02T08:23:14.239Z,951.9100
2023-04-02T08:24:16.364Z,951.9239
2023-04-02T08:25:18.504Z,951.9706
2023-04-02T08:26:20.628Z,951.9950
2023-04-02T08:27:22.690Z,951.9128
2023-04-02T08:28:24.786Z,951.9750
2023-04-02T08:29:26.858Z,951.9805
2023-04-02T08:30:29.012Z,951.9572
2023-04-02T08:31:31.101Z,951.9467
2023-04-02T08:32:33.261Z,951.9506
2023-04-02T08:33:35.366Z,952.0317
2023-04-02T08:34:37.473Z,951.9456
2023-04-02T08:35:39.776Z,951.9155
2023-04-02T08:36:42.154Z,951.9389
2023-04-02T08:37:44.246Z,952.0217
2023-04-02T08:38:46.351Z,952.0372
2023-04-02T08:39:48.453Z,952.1116
2023-04-02T08:40:50.576Z,952.0845
2023-04-02T08:41:52.690Z,952.0361
2023-04-02T08:42:54.787Z,952.0195
2023-04-02T08:43:56.887Z,951.9855
2023-04-02T08:44:58.984Z,951.9633
2023-04-02T08:46:01.344Z,952.0895
2023-04-02T08:47:03.453Z,951.9611
2023-04-02T08:48:05.601Z,952.0306
2023-04-02T08:49:07.733Z,952.1255
2023-04-02T08:50:09.824Z,952.0756
2023-04-02T08:51:11.950Z,952.0806
2023-04-02T08:52:14.075Z,952.1000
2023-04-02T08:53:16.205Z,952.1411
2023-04-02T08:54:18.317Z,952.0750
2023-04-02T08:55:20.422Z,952.1372
2023-04-02T08:56:22.558Z,952.1483
2023-04-02T08:57:24.736Z,952.1622
2023-04-02T08:58:27.026Z,952.1172
2023-04-02T08:59:29.146Z,952.1900
2023-04-02T09:00:31.296Z,952.1995
2023-04-02T09:01:33.396Z,952.1111
2023-04-02T09:02:35.584Z,952.1056
2023-04-02T09:03:37.708Z,952.1250
2023-04-02T09:04:39.901Z,952.1628
2023-04-02T09:05:42.149Z,952.1844
2023-04-02T09:06:44.213Z,952.2183
2023-04-02T09:07:46.377Z,952.2122
2023-04-02T09:08:46.791Z,952.1935
2023-04-02T09:09:49.033Z,952.1489
2023-04-02T09:10:51.153Z,952.1589
2023-04-02T09:11:53.302Z,952.1322
2023-04-02T09:12:55.430Z,952.1406
2023-04-02T09:13:57.600Z,952.1672
2023-04-02T09:14:59.725Z,952.2033
2023-04-02T09:16:01.936Z,952.2094
2023-04-02T09:17:04.080Z,952.3050
2023-04-02T09:18:06.202Z,952.2894
2023-04-02T09:19:08.300Z,952.2278
2023-04-02T09:20:10.408Z,952.2717
2023-04-02T09:21:12.530Z,952.3517
2023-04-02T09:22:14.644Z,952.3489
2023-04-02T09:23:16.775Z,952.3773
2023-04-02T09:24:18.865Z,952.3678
2023-04-02T09:25:20.983Z,952.4017
2023-04-02T09:26:23.108Z,952.3777
2023-04-02T09:27:25.196Z,952.3572
2023-04-02T09:28:27.302Z,952.4211
2023-04-02T09:29:29.410Z,952.3734
2023-04-02T09:30:31.511Z,952.3344
2023-04-02T09:31:33.887Z,952.3700
2023-04-02T09:32:36.055Z,952.3878
2023-04-02T09:33:38.196Z,952.2661
2023-04-02T09:34:40.294Z,952.1650
2023-04-02T09:35:42.542Z,952.2628
2023-04-02T09:36:44.757Z,952.4250
2023-04-02T09:37:46.872Z,952.3661
2023-04-02T09:38:48.982Z,952.5378
2023-04-02T09:39:51.127Z,952.4961
2023-04-02T09:40:53.214Z,952.4261
2023-04-02T09:42:04.962Z,952.4850
2023-04-02T09:42:56.440Z,952.5812
2023-04-02T09:43:58.613Z,952.5511
2023-04-02T09:45:00.712Z,952.4467
2023-04-02T09:46:02.808Z,952.4900
2023-04-02T09:47:05.017Z,952.5684
2023-04-02T09:48:07.259Z,952.5756
2023-04-02T09:49:09.378Z,952.6811
2023-04-02T09:50:11.510Z,952.6578
2023-04-02T09:51:13.615Z,952.6383
2023-04-02T09:52:15.725Z,952.6761
2023-04-02T09:53:17.812Z,952.7061
2023-04-02T09:54:19.929Z,952.7317
2023-04-02T09:55:22.026Z,952.7244
2023-04-02T09:56:24.340Z,952.6495
2023-04-02T09:57:26.461Z,952.7106
2023-04-02T09:58:28.545Z,952.7083
2023-04-02T09:59:30.644Z,952.7478
2023-04-02T10:00:32.952Z,952.7572
2023-04-02T10:01:35.252Z,952.7489
2023-04-02T10:02:37.655Z,952.7822
2023-04-02T10:03:39.804Z,952.7844
2023-04-02T10:04:41.968Z,952.7500
2023-04-02T10:05:44.319Z,952.7700
2023-04-02T10:06:46.487Z,952.7628
2023-04-02T10:07:48.548Z,952.6767
2023-04-02T10:08:50.654Z,952.7228
2023-04-02T10:09:52.737Z,952.7750
2023-04-02T10:10:55.132Z,952.7539
2023-04-02T10:11:57.206Z,952.7839
2023-04-02T10:12:59.290Z,952.7772
2023-04-02T10:14:01.407Z,952.7556
2023-04-02T10:15:03.596Z,952.7678
2023-04-02T10:16:05.838Z,952.7322
2023-04-02T10:17:08.022Z,952.7017
2023-04-02T10:18:10.145Z,952.7194
2023-04-02T10:19:12.250Z,952.7550
2023-04-02T10:20:14.426Z,952.7022
2023-04-02T10:21:14.867Z,952.7877
2023-04-02T10:22:16.989Z,952.7383
2023-04-02T10:23:19.353Z,952.6655
2023-04-02T10:24:21.432Z,952.6633
2023-04-02T10:25:23.563Z,952.7289
2023-04-02T10:26:25.705Z,952.6100
2023-04-02T10:27:27.801Z,952.6150
2023-04-02T10:28:30.276Z,952.7244
2023-04-02T10:29:32.410Z,952.5911
2023-04-02T10:30:34.553Z,952.6478
2023-04-02T10:31:36.716Z,952.6289
2023-04-02T10:32:38.831Z,952.7011
2023-04-02T10:33:41.034Z,952.8134
2023-04-02T10:34:43.342Z,952.7617
2023-04-02T10:35:45.543Z,952.8128
2023-04-02T10:36:47.652Z,952.8183
2023-04-02T10:37:49.772Z,952.8394
2023-04-02T10:38:51.888Z,952.8116
2023-04-02T10:39:54.015Z,952.7150
2023-04-02T10:40:57.025Z,952.8256
2023-04-02T10:41:59.186Z,952.7772
2023-04-02T10:43:01.324Z,952.7822
2023-04-02T10:44:16.654Z,952.7505
2023-04-02T10:45:04.639Z,952.8075
2023-04-02T10:46:06.807Z,952.7883
2023-04-02T10:47:08.899Z,952.7978
2023-04-02T10:48:11.084Z,952.8033
2023-04-02T10:49:13.197Z,952.8372
2023-04-02T10:50:15.245Z,952.8478
2023-04-02T10:51:17.397Z,952.9039
2023-04-02T10:52:19.468Z,952.8750
2023-04-02T10:53:21.642Z,952.8705
2023-04-02T10:54:23.721Z,952.9106
2023-04-02T10:55:25.833Z,952.9105
2023-04-02T10:56:29.809Z,952.8389
2023-04-02T10:57:29.159Z,952.8000
2023-04-02T10:58:31.226Z,952.9567
2023-04-02T10:59:33.297Z,952.8400
2023-04-02T11:00:35.457Z,952.8561
2023-04-02T11:01:37.655Z,952.8911
2023-04-02T11:02:39.874Z,952.8594
2023-04-02T11:03:42.190Z,952.8811
2023-04-02T11:04:44.370Z,952.8950
2023-04-02T11:05:46.559Z,952.8411
2023-04-02T11:06:48.699Z,952.8600
2023-04-02T11:07:50.836Z,952.9178
2023-04-02T11:08:52.962Z,952.9661
2023-04-02T11:09:55.126Z,952.9344
2023-04-02T11:10:57.294Z,952.9228
2023-04-02T11:11:59.410Z,952.9750
2023-04-02T11:13:01.754Z,952.9772
2023-04-02T11:14:03.929Z,952.9417
2023-04-02T11:15:06.026Z,953.0645
2023-04-02T11:16:08.224Z,953.0500
2023-04-02T11:17:10.356Z,953.0261
2023-04-02T11:18:12.473Z,953.0200
2023-04-02T11:19:14.624Z,953.0034
2023-04-02T11:20:16.771Z,952.9894
2023-04-02T11:21:18.913Z,953.0056
2023-04-02T11:22:21.082Z,952.8950
2023-04-02T11:23:23.219Z,953.0483
2023-04-02T11:24:25.378Z,953.0356
2023-04-02T11:25:27.774Z,953.0322
2023-04-02T11:26:29.909Z,953.0195
2023-04-02T11:27:32.063Z,952.9950
2023-04-02T11:28:34.271Z,952.9839
2023-04-02T11:29:36.422Z,952.9428
2023-04-02T11:30:38.552Z,952.8734
2023-04-02T11:31:40.777Z,952.9255
2023-04-02T11:32:43.168Z,952.9595
2023-04-02T11:33:47.364Z,952.9872
2023-04-02T11:34:56.387Z,953.0265
2023-04-02T11:35:48.734Z,953.0906
2023-04-02T11:36:50.884Z,953.0500
2023-04-02T11:37:53.063Z,953.0245
2023-04-02T11:38:59.635Z,953.0222
2023-04-02T11:39:56.398Z,953.0306
2023-04-02T11:40:58.546Z,953.0516
2023-04-02T11:42:00.714Z,953.0605
2023-04-02T11:43:02.900Z,953.0711
2023-04-02T11:44:05.018Z,953.0944
2023-04-02T11:45:07.196Z,953.0972
2023-04-02T11:46:09.341Z,953.0555
2023-04-02T11:47:11.479Z,952.9900
2023-04-02T11:48:13.651Z,953.1222
2023-04-02T11:49:15.979Z,953.1422
2023-04-02T11:50:18.228Z,953.1556
2023-04-02T11:51:21.329Z,953.1655
2023-04-02T11:52:23.810Z,953.1439
2023-04-02T11:53:25.951Z,953.1428
2023-04-02T11:54:28.083Z,953.1561
2023-04-02T11:55:30.212Z,953.1239
2023-04-02T11:56:32.324Z,953.1300
2023-04-02T11:57:34.577Z,953.1255
2023-04-02T11:58:36.772Z,953.1550
2023-04-02T11:59:38.915Z,953.1789
2023-04-02T12:00:41.326Z,953.1761
2023-04-02T12:01:43.455Z,953.2128
2023-04-02T12:02:45.716Z,953.2061
2023-04-02T12:03:47.874Z,953.1811
2023-04-02T12:04:49.996Z,953.1995
2023-04-02T12:05:52.117Z,953.1772
2023-04-02T12:06:54.266Z,953.1550
2023-04-02T12:07:56.438Z,953.1539
2023-04-02T12:08:58.580Z,953.1461
2023-04-02T12:10:00.724Z,953.1611
2023-04-02T12:11:02.876Z,953.1711
2023-04-02T12:12:04.991Z,953.1406
2023-04-02T12:13:07.151Z,953.1417
2023-04-02T12:14:09.313Z,953.1644
2023-04-02T12:15:11.540Z,953.1655
2023-04-02T12:16:13.694Z,953.1539
2023-04-02T12:17:15.884Z,953.1544
2023-04-02T12:18:18.018Z,953.1328
2023-04-02T12:19:20.195Z,953.1217